Irwin, Idaho
Current Conditions -  °F | °C
As of 5:56 AM on Thursday 23 Oct 2014 (Local Time) from KDIJ Reporting Station
Broken Clouds Broken Clouds  
Wind Chill: 37°   Ceiling: 9000
Heat Index: 42°   Visibility: 10mi
Dew Point: 28°   Wind: 8mph
Humidity: 58%   Direction: 120°ESE
Pressure: 30.16"   Gusts: NA
Location:  43.41°N, 111.3°W
Report Text: KDIJ 231156Z AUTO 12007KT 10SM FEW060 BKN090 06/M02 A3016 RMK AO2 56006 T00551022 10066 20000 SLP172
Loading
Personal Weather Stations






























Interactive Weather Map
Tropical Storm Tracking
New forecast layout! Learn more

10-Day Weather Forecast

Advertisements
Track Severe Weather on mobile